Time;durP1;ratioP1;P1;durP2;ratioP2;P2;SDS_P1;SDS_P2;PMS_P1;PMS_P2;Temp;Humidity;BMP_temperature;BMP_pressure;BME280_temperature;BME280_humidity;BME280_pressure;Samples;Min_cycle;Max_cycle;Signal;HPM_P1;HPM_P2
2023/07/07 00:01:02;;;;;;;4.90;2.90;;;16.80;62.30;;;;;;5005892;28;20054;-68
2023/07/07 00:03:30;;;;;;;5.20;3.10;;;16.70;62.40;;;;;;5012618;28;20053;-68
2023/07/07 00:05:57;;;;;;;6.97;3.45;;;16.70;62.50;;;;;;5016129;28;20107;-68
2023/07/07 00:08:24;;;;;;;6.28;3.53;;;16.60;62.60;;;;;;5014217;28;20053;-69
2023/07/07 00:10:53;;;;;;;5.30;3.13;;;16.60;62.80;;;;;;5009528;28;20053;-66
2023/07/07 00:13:21;;;;;;;5.57;3.05;;;16.60;62.90;;;;;;5018929;28;20208;-69
2023/07/07 00:15:48;;;;;;;5.53;3.58;;;16.60;63.00;;;;;;5012291;28;20065;-68
2023/07/07 00:18:17;;;;;;;5.50;2.92;;;16.50;63.10;;;;;;5018476;28;20120;-68
2023/07/07 00:20:46;;;;;;;5.55;2.90;;;16.50;63.10;;;;;;5015144;28;20186;-68
2023/07/07 00:23:13;;;;;;;5.30;3.10;;;16.40;63.00;;;;;;5019911;28;20481;-68
2023/07/07 00:25:40;;;;;;;4.13;2.60;;;16.40;63.20;;;;;;5016973;28;20523;-68
2023/07/07 00:28:06;;;;;;;5.10;2.70;;;16.30;63.10;;;;;;5010571;28;20061;-68
2023/07/07 00:30:33;;;;;;;4.65;2.30;;;16.30;63.10;;;;;;5013037;28;20038;-68
2023/07/07 00:33:00;;;;;;;3.97;2.22;;;16.20;63.20;;;;;;4994345;28;20083;-68
2023/07/07 00:35:28;;;;;;;5.07;2.10;;;16.20;63.10;;;;;;5006696;28;20117;-68
2023/07/07 00:37:58;;;;;;;6.03;2.47;;;16.20;63.20;;;;;;4993908;28;20108;-68
2023/07/07 00:40:25;;;;;;;3.28;2.03;;;16.10;63.30;;;;;;4984883;28;20050;-67
2023/07/07 00:42:53;;;;;;;4.10;2.20;;;16.10;63.40;;;;;;5014901;28;20046;-67
2023/07/07 00:45:21;;;;;;;3.60;2.00;;;16.10;63.40;;;;;;5009312;28;20060;-68
2023/07/07 00:47:53;;;;;;;3.88;2.08;;;16.00;63.60;;;;;;5010946;28;20058;-68
2023/07/07 00:50:24;;;;;;;4.10;2.00;;;16.00;63.60;;;;;;4967930;28;20600;-65
2023/07/07 00:52:51;;;;;;;4.72;2.60;;;16.00;63.70;;;;;;5011252;28;20575;-67
2023/07/07 00:55:25;;;;;;;4.65;1.92;;;15.90;63.80;;;;;;4992415;28;20069;-68
2023/07/07 00:57:52;;;;;;;2.90;1.70;;;15.90;63.80;;;;;;5009101;28;20053;-68
2023/07/07 01:00:19;;;;;;;3.33;1.70;;;15.90;63.90;;;;;;5016228;28;20822;-69
2023/07/07 01:02:54;;;;;;;3.67;1.60;;;15.90;63.90;;;;;;5019277;28;20053;-67
2023/07/07 01:05:24;;;;;;;3.78;1.90;;;15.90;63.90;;;;;;5017650;28;20119;-68
2023/07/07 01:07:51;;;;;;;;;;;15.90;64.00;;;;;;5012419;28;20045;-67
2023/07/07 01:10:21;;;;;;;4.32;2.00;;;15.80;64.10;;;;;;5010055;28;20352;-67
2023/07/07 01:12:49;;;;;;;5.05;1.88;;;15.80;64.00;;;;;;5014124;28;20452;-68
2023/07/07 01:15:16;;;;;;;3.70;1.92;;;15.70;64.10;;;;;;5016160;28;20489;-69
2023/07/07 01:18:04;;;;;;;3.25;1.88;;;15.70;64.30;;;;;;5004126;28;20597;-68
2023/07/07 01:20:37;;;;;;;3.67;1.65;;;15.60;64.40;;;;;;4995125;28;20123;-67
2023/07/07 01:23:43;;;;;;;3.63;1.90;;;15.60;64.40;;;;;;5011449;28;20052;-68
2023/07/07 01:26:23;;;;;;;4.50;1.95;;;15.60;64.60;;;;;;4983908;28;20457;-68
2023/07/07 01:29:00;;;;;;;;;;;15.60;64.60;;;;;;5015028;28;20159;-68
2023/07/07 01:31:59;;;;;;;3.80;1.70;;;15.60;64.70;;;;;;5015881;28;19925;-68
2023/07/07 01:34:27;;;;;;;3.95;1.95;;;15.60;64.60;;;;;;4994481;28;20058;-68
2023/07/07 01:36:54;;;;;;;3.85;1.92;;;15.50;64.80;;;;;;4949010;28;20069;-67
2023/07/07 01:43:41;;;;;;;3.55;1.98;;;15.50;64.80;;;;;;4875374;28;20892;-68
2023/07/07 01:46:17;;;;;;;3.60;1.60;;;15.40;64.90;;;;;;4945727;28;20679;-69
2023/07/07 01:48:53;;;;;;;3.88;2.10;;;15.30;65.00;;;;;;4969181;28;20049;-68
2023/07/07 01:51:24;;;;;;;4.45;2.42;;;15.40;64.90;;;;;;4998011;28;20149;-68
2023/07/07 01:53:53;;;;;;;5.03;1.92;;;15.30;65.00;;;;;;5006228;28;20095;-67
2023/07/07 01:56:24;;;;;;;5.65;2.35;;;15.30;65.00;;;;;;4985767;28;20385;-68
2023/07/07 01:58:52;;;;;;;4.78;2.15;;;15.30;64.80;;;;;;4993474;28;20496;-68
2023/07/07 02:01:19;;;;;;;4.22;2.42;;;15.30;64.80;;;;;;5009112;28;20045;-68
2023/07/07 02:03:48;;;;;;;4.45;2.40;;;15.20;64.90;;;;;;4998496;28;20069;-68
2023/07/07 02:06:15;;;;;;;6.93;3.03;;;15.20;64.90;;;;;;5000616;28;20053;-68
2023/07/07 02:08:42;;;;;;;5.07;2.45;;;15.20;64.80;;;;;;4998885;28;20583;-67
2023/07/07 02:11:09;;;;;;;4.40;2.30;;;15.10;65.20;;;;;;5001559;28;20045;-68
2023/07/07 02:13:36;;;;;;;5.28;2.30;;;15.10;65.40;;;;;;5015063;28;20144;-68
2023/07/07 02:16:04;;;;;;;3.60;1.98;;;15.10;65.40;;;;;;4997446;28;20046;-69
2023/07/07 02:18:37;;;;;;;3.80;2.05;;;15.10;65.40;;;;;;5012905;28;20290;-68
2023/07/07 02:21:06;;;;;;;4.05;2.10;;;15.00;65.50;;;;;;4994320;28;20033;-70
2023/07/07 02:23:33;;;;;;;3.67;1.88;;;15.10;65.50;;;;;;5008420;28;20046;-69
2023/07/07 02:26:00;;;;;;;4.45;2.10;;;15.00;65.60;;;;;;5007332;28;20395;-68
2023/07/07 02:28:27;;;;;;;3.92;1.88;;;14.90;65.70;;;;;;5009662;28;20077;-67
2023/07/07 02:30:55;;;;;;;3.25;1.52;;;14.90;65.80;;;;;;5011860;28;20045;-68
2023/07/07 02:33:30;;;;;;;3.15;1.90;;;14.90;65.80;;;;;;5010041;28;20056;-69
2023/07/07 02:36:02;;;;;;;6.57;2.10;;;15.00;65.50;;;;;;4990531;28;20065;-68
2023/07/07 02:38:30;;;;;;;4.07;2.05;;;15.00;65.40;;;;;;5016883;28;20125;-68
2023/07/07 02:40:57;;;;;;;3.25;1.70;;;15.00;65.60;;;;;;5009222;28;20397;-67
2023/07/07 02:43:25;;;;;;;4.13;2.05;;;14.90;65.70;;;;;;5005951;28;20064;-68
2023/07/07 02:45:52;;;;;;;3.67;1.98;;;14.80;66.00;;;;;;4961523;28;20055;-67
2023/07/07 02:48:20;;;;;;;4.28;2.05;;;14.80;66.20;;;;;;4975674;28;20055;-68
2023/07/07 02:50:55;;;;;;;4.60;2.45;;;14.70;66.40;;;;;;4979272;28;20051;-68
2023/07/07 02:53:23;;;;;;;4.72;2.67;;;14.60;66.60;;;;;;4994427;28;20061;-67
2023/07/07 02:55:51;;;;;;;6.55;2.65;;;14.70;66.60;;;;;;5005159;28;20083;-67
2023/07/07 02:58:18;;;;;;;5.53;2.63;;;14.70;66.20;;;;;;5000669;28;20065;-67
2023/07/07 03:00:45;;;;;;;5.70;2.80;;;14.70;66.10;;;;;;5014039;28;20051;-67
2023/07/07 03:03:12;;;;;;;5.10;2.25;;;14.70;65.90;;;;;;5013493;28;20053;-66
2023/07/07 03:05:39;;;;;;;3.78;2.08;;;14.70;66.20;;;;;;5010385;28;20046;-67
2023/07/07 03:08:06;;;;;;;4.57;2.33;;;14.60;66.40;;;;;;5003990;28;20052;-67
2023/07/07 03:10:36;;;;;;;4.63;2.25;;;14.60;66.50;;;;;;5016882;28;20066;-68
2023/07/07 03:13:05;;;;;;;4.25;2.20;;;14.60;66.60;;;;;;5012784;28;20121;-68
2023/07/07 03:15:39;;;;;;;8.05;2.10;;;14.60;66.40;;;;;;4995409;28;20128;-68
2023/07/07 03:18:11;;;;;;;3.60;1.92;;;14.60;66.40;;;;;;5001504;28;20502;-67
2023/07/07 03:20:47;;;;;;;3.70;1.75;;;14.60;66.60;;;;;;4999610;28;20119;-67
2023/07/07 03:23:16;;;;;;;5.90;1.88;;;14.50;66.70;;;;;;4993106;28;20050;-67
2023/07/07 03:25:44;;;;;;;4.47;2.40;;;14.40;66.90;;;;;;5001752;28;21773;-68
2023/07/07 03:28:14;;;;;;;4.70;1.95;;;14.40;67.10;;;;;;4995232;28;20054;-69
2023/07/07 03:30:44;;;;;;;4.07;2.00;;;14.40;67.20;;;;;;5012148;28;20054;-68
2023/07/07 03:33:15;;;;;;;4.22;1.70;;;14.40;67.20;;;;;;5001019;28;20563;-68
2023/07/07 03:35:45;;;;;;;5.68;2.30;;;14.30;67.30;;;;;;5013341;28;20129;-66
2023/07/07 03:38:14;;;;;;;4.22;1.73;;;14.40;67.50;;;;;;5000087;28;20079;-68
2023/07/07 03:40:50;;;;;;;4.15;1.95;;;14.30;67.50;;;;;;4991777;28;20049;-68
2023/07/07 03:43:22;;;;;;;7.63;2.28;;;14.30;67.50;;;;;;5001279;28;20535;-66
2023/07/07 03:45:49;;;;;;;3.38;1.88;;;14.30;67.60;;;;;;4996419;28;20386;-67
2023/07/07 03:48:17;;;;;;;4.55;2.20;;;14.30;67.70;;;;;;4999102;28;20053;-67
2023/07/07 03:50:44;;;;;;;3.22;1.83;;;14.20;67.80;;;;;;4995735;28;20096;-67
2023/07/07 03:53:12;;;;;;;4.05;2.03;;;14.20;67.90;;;;;;5001278;28;20053;-68
2023/07/07 03:55:42;;;;;;;4.10;1.98;;;14.20;68.10;;;;;;5001753;28;20108;-68
2023/07/07 03:58:09;;;;;;;5.97;2.22;;;14.10;68.30;;;;;;5002506;28;20053;-68
2023/07/07 04:00:37;;;;;;;3.47;2.05;;;14.10;68.40;;;;;;5010731;28;20049;-67
2023/07/07 04:03:04;;;;;;;5.25;2.35;;;14.10;68.30;;;;;;5002655;28;20049;-69
2023/07/07 04:05:31;;;;;;;3.95;1.80;;;14.10;68.30;;;;;;5015025;28;20068;-68
2023/07/07 04:08:00;;;;;;;4.53;1.90;;;14.20;68.20;;;;;;5000654;28;20054;-68
2023/07/07 04:10:27;;;;;;;5.53;2.42;;;14.20;68.20;;;;;;5018626;28;20072;-66
2023/07/07 04:12:54;;;;;;;4.18;2.40;;;14.20;68.30;;;;;;5001985;28;20088;-69
2023/07/07 04:15:21;;;;;;;4.53;2.20;;;14.20;68.30;;;;;;5000575;28;20060;-68
2023/07/07 04:17:49;;;;;;;4.03;2.00;;;14.20;68.20;;;;;;5013141;28;20053;-67
2023/07/07 04:20:17;;;;;;;3.70;2.10;;;14.20;68.20;;;;;;4996683;28;20050;-67
2023/07/07 04:22:44;;;;;;;4.80;2.30;;;14.20;68.30;;;;;;5013685;28;20050;-66
2023/07/07 04:25:13;;;;;;;4.30;1.98;;;14.20;68.30;;;;;;5001888;28;20045;-68
2023/07/07 04:27:40;;;;;;;4.70;2.30;;;14.20;68.30;;;;;;5018184;28;20428;-67
2023/07/07 04:30:08;;;;;;;4.10;2.00;;;14.30;68.20;;;;;;5019527;28;20045;-67
2023/07/07 04:32:35;;;;;;;4.55;2.13;;;14.30;68.30;;;;;;5017876;28;20053;-66
2023/07/07 04:35:04;;;;;;;4.18;2.17;;;14.30;68.00;;;;;;5013440;28;20050;-68
2023/07/07 04:37:31;;;;;;;4.30;2.40;;;14.40;67.80;;;;;;5017351;28;20057;-67
2023/07/07 04:39:58;;;;;;;4.35;2.10;;;14.40;67.60;;;;;;5021566;28;20422;-68
2023/07/07 04:42:25;;;;;;;3.75;2.10;;;14.40;67.50;;;;;;5019675;28;20551;-67
2023/07/07 04:44:52;;;;;;;3.88;1.65;;;14.50;67.50;;;;;;5014356;28;20132;-67
2023/07/07 04:47:19;;;;;;;3.30;1.90;;;14.40;67.60;;;;;;5010065;28;22217;-65
2023/07/07 04:49:46;;;;;;;3.47;1.90;;;14.50;67.60;;;;;;5011669;28;20579;-66
2023/07/07 04:52:14;;;;;;;3.38;1.90;;;14.50;67.50;;;;;;5017623;28;20050;-67
2023/07/07 04:54:41;;;;;;;4.50;2.13;;;14.50;67.60;;;;;;5016162;28;20100;-68
2023/07/07 04:57:08;;;;;;;3.92;2.15;;;14.50;67.70;;;;;;5015883;28;20133;-67
2023/07/07 04:59:35;;;;;;;7.32;2.47;;;14.60;67.50;;;;;;5000440;28;20046;-67
2023/07/07 05:02:03;;;;;;;4.95;2.40;;;14.60;67.30;;;;;;5015815;28;20524;-67
2023/07/07 05:04:29;;;;;;;3.28;1.90;;;14.70;67.20;;;;;;5015300;28;20761;-67
2023/07/07 05:06:56;;;;;;;4.28;2.13;;;14.70;67.40;;;;;;5016059;28;20629;-67
2023/07/07 05:09:25;;;;;;;4.35;2.30;;;14.60;67.70;;;;;;5014967;28;20050;-66
2023/07/07 05:11:51;;;;;;;4.47;2.40;;;14.60;67.90;;;;;;4999754;28;20176;-69
2023/07/07 05:14:18;;;;;;;4.47;2.28;;;14.60;67.80;;;;;;4993873;28;20546;-68
2023/07/07 05:16:45;;;;;;;4.05;2.08;;;14.60;67.80;;;;;;4989454;28;20057;-67
2023/07/07 05:19:12;;;;;;;3.70;2.22;;;14.70;67.40;;;;;;4993680;28;20433;-68
2023/07/07 05:21:39;;;;;;;5.32;2.38;;;14.70;67.50;;;;;;4997448;28;20058;-67
2023/07/07 05:24:06;;;;;;;5.47;2.13;;;14.70;67.40;;;;;;5005296;28;20037;-68
2023/07/07 05:26:34;;;;;;;5.00;2.22;;;14.80;67.60;;;;;;5017244;28;20049;-68
2023/07/07 05:29:03;;;;;;;3.72;2.08;;;14.80;67.60;;;;;;4998044;28;20050;-67
2023/07/07 05:31:30;;;;;;;3.83;2.13;;;14.80;67.50;;;;;;5009649;28;20396;-66
2023/07/07 05:37:42;;;;;;;3.85;2.10;;;14.90;67.70;;;;;;4988225;28;20060;-67
2023/07/07 05:40:09;;;;;;;4.68;2.30;;;14.90;67.60;;;;;;5016699;28;20046;-66
2023/07/07 05:42:38;;;;;;;3.92;2.20;;;15.00;67.70;;;;;;5011941;28;20712;-67
2023/07/07 05:45:05;;;;;;;6.30;2.05;;;15.00;67.70;;;;;;5009988;28;20054;-67
2023/07/07 05:47:32;;;;;;;4.70;2.10;;;15.00;67.70;;;;;;5010645;28;20045;-68
2023/07/07 05:49:59;;;;;;;4.07;2.10;;;15.10;67.40;;;;;;5009413;28;20054;-67
2023/07/07 05:52:26;;;;;;;3.50;2.03;;;15.10;67.20;;;;;;5015421;28;20069;-67
2023/07/07 05:54:53;;;;;;;3.13;1.90;;;15.20;67.00;;;;;;5008816;28;20468;-67
2023/07/07 05:57:20;;;;;;;4.57;2.30;;;15.20;67.20;;;;;;5021092;28;20188;-67
2023/07/07 05:59:48;;;;;;;6.82;2.28;;;15.20;67.10;;;;;;5016142;28;20049;-67
2023/07/07 06:02:15;;;;;;;4.00;2.15;;;15.30;67.20;;;;;;5008678;28;20104;-68
2023/07/07 06:04:42;;;;;;;6.40;2.50;;;15.30;66.90;;;;;;5012808;28;20053;-66
2023/07/07 06:07:09;;;;;;;5.57;2.50;;;15.30;66.80;;;;;;5017667;28;20046;-66
2023/07/07 06:09:36;;;;;;;5.25;2.40;;;15.40;67.00;;;;;;4997530;28;20050;-67
2023/07/07 06:12:04;;;;;;;6.47;2.38;;;15.40;67.20;;;;;;5013932;28;20068;-68
2023/07/07 06:14:31;;;;;;;5.68;2.63;;;15.50;67.20;;;;;;5013678;28;20053;-66
2023/07/07 06:16:59;;;;;;;4.93;2.58;;;15.60;67.30;;;;;;5015998;28;20053;-66
2023/07/07 06:19:26;;;;;;;3.92;1.95;;;15.60;67.30;;;;;;5012582;28;20038;-68
2023/07/07 06:21:53;;;;;;;5.20;2.53;;;15.60;67.40;;;;;;5016299;28;20061;-67
2023/07/07 06:24:20;;;;;;;4.38;2.20;;;15.70;67.30;;;;;;5016644;28;20057;-66
2023/07/07 06:26:47;;;;;;;3.97;2.40;;;15.80;67.40;;;;;;5013886;28;20050;-67
2023/07/07 06:29:14;;;;;;;4.55;2.25;;;15.80;67.30;;;;;;5013950;28;20539;-67
2023/07/07 06:31:41;;;;;;;6.97;2.63;;;15.90;67.10;;;;;;5015647;28;20061;-68
2023/07/07 06:34:09;;;;;;;4.47;2.30;;;16.00;66.90;;;;;;5018495;28;20505;-67
2023/07/07 06:36:36;;;;;;;3.67;2.15;;;16.10;66.90;;;;;;5015105;28;20136;-67
2023/07/07 06:39:03;;;;;;;6.07;2.22;;;16.20;66.60;;;;;;5010307;28;20157;-67
2023/07/07 06:41:30;;;;;;;4.82;2.13;;;16.40;66.30;;;;;;5013793;28;20046;-68
2023/07/07 06:43:57;;;;;;;4.97;2.50;;;16.60;66.00;;;;;;5004522;28;20061;-66
2023/07/07 06:46:26;;;;;;;5.18;2.75;;;16.70;65.90;;;;;;5011386;28;20050;-67
2023/07/07 06:48:53;;;;;;;6.00;2.70;;;16.90;65.60;;;;;;5014376;28;20049;-67
2023/07/07 06:51:21;;;;;;;6.32;2.80;;;17.10;65.00;;;;;;5014159;28;20053;-66
2023/07/07 06:53:48;;;;;;;6.72;3.17;;;17.30;64.60;;;;;;5007174;28;20083;-66
2023/07/07 06:56:14;;;;;;;7.70;3.17;;;17.50;64.30;;;;;;5014848;28;20060;-66
2023/07/07 06:58:41;;;;;;;9.85;2.80;;;17.70;64.10;;;;;;5012566;28;20481;-68
2023/07/07 07:01:11;;;;;;;5.82;2.80;;;17.90;63.50;;;;;;5013748;28;20481;-67
2023/07/07 07:03:38;;;;;;;6.20;3.47;;;18.10;63.00;;;;;;5014771;28;20050;-67
2023/07/07 07:06:05;;;;;;;6.85;3.15;;;18.30;62.60;;;;;;5019465;28;20081;-67
2023/07/07 07:08:33;;;;;;;5.20;2.80;;;18.60;61.90;;;;;;5007593;28;20440;-68
2023/07/07 07:11:01;;;;;;;5.40;3.10;;;18.80;61.30;;;;;;5011547;28;20060;-66
2023/07/07 07:13:27;;;;;;;3.92;2.13;;;19.00;60.80;;;;;;5010144;28;20165;-68
2023/07/07 07:15:55;;;;;;;4.65;2.50;;;19.10;60.90;;;;;;5013135;28;20054;-67
2023/07/07 07:18:22;;;;;;;5.03;3.00;;;19.10;61.10;;;;;;5006375;28;20062;-67
2023/07/07 07:20:49;;;;;;;6.20;3.60;;;19.50;60.30;;;;;;5014772;28;20056;-67
2023/07/07 07:23:17;;;;;;;6.68;3.20;;;19.60;59.70;;;;;;5016200;28;20053;-66
2023/07/07 07:25:45;;;;;;;5.32;3.10;;;20.00;59.10;;;;;;5016425;28;20135;-67
2023/07/07 07:28:13;;;;;;;5.03;3.00;;;20.10;58.30;;;;;;5011125;28;20512;-67
2023/07/07 07:30:40;;;;;;;5.40;2.95;;;20.40;57.60;;;;;;5012939;28;20548;-68
2023/07/07 07:33:11;;;;;;;4.93;2.60;;;20.50;57.40;;;;;;5011986;28;20464;-67
2023/07/07 07:35:38;;;;;;;4.75;2.35;;;20.70;56.90;;;;;;5014525;28;20050;-67
2023/07/07 07:38:05;;;;;;;3.88;2.10;;;20.90;56.40;;;;;;5013993;28;20150;-67
2023/07/07 07:40:32;;;;;;;4.00;2.13;;;21.10;56.00;;;;;;5016496;28;20145;-69
2023/07/07 07:43:00;;;;;;;4.88;2.53;;;21.30;55.60;;;;;;5016802;28;20054;-68
2023/07/07 07:45:27;;;;;;;5.65;2.75;;;21.50;55.20;;;;;;5014587;28;20048;-67
2023/07/07 07:47:54;;;;;;;4.03;2.17;;;21.70;54.80;;;;;;5016442;28;20053;-67
2023/07/07 07:50:23;;;;;;;4.10;1.90;;;21.90;54.30;;;;;;5012123;28;20050;-67
2023/07/07 07:52:50;;;;;;;4.32;2.25;;;22.10;54.20;;;;;;5015547;28;20049;-67
2023/07/07 07:55:17;;;;;;;4.57;2.05;;;22.10;53.70;;;;;;5015822;28;20054;-67
2023/07/07 07:57:45;;;;;;;4.30;2.40;;;22.30;53.60;;;;;;5017205;28;20413;-68
2023/07/07 08:00:14;;;;;;;2.90;1.77;;;22.50;54.00;;;;;;5017364;28;20046;-68
2023/07/07 08:02:43;;;;;;;4.10;2.17;;;22.60;53.30;;;;;;5008641;28;20128;-67
2023/07/07 08:05:11;;;;;;;3.95;2.25;;;22.80;53.30;;;;;;5014990;28;20071;-67
2023/07/07 08:07:38;;;;;;;4.10;2.28;;;23.00;52.50;;;;;;5015852;28;20044;-67
2023/07/07 08:10:06;;;;;;;3.63;2.15;;;23.10;52.80;;;;;;5005640;28;20045;-68
2023/07/07 08:12:34;;;;;;;4.55;2.40;;;23.30;51.50;;;;;;5014283;28;20523;-68
2023/07/07 08:15:01;;;;;;;5.25;2.28;;;23.50;51.20;;;;;;5018311;28;20111;-68
2023/07/07 08:17:29;;;;;;;4.18;2.30;;;23.60;51.40;;;;;;5010917;28;20057;-67
2023/07/07 08:19:58;;;;;;;5.90;2.47;;;23.80;51.00;;;;;;5012803;28;20050;-67
2023/07/07 08:22:26;;;;;;;4.60;2.00;;;23.90;50.70;;;;;;5017454;28;20060;-67
2023/07/07 08:24:55;;;;;;;3.50;2.13;;;24.10;49.90;;;;;;5012850;28;20405;-67
2023/07/07 08:27:24;;;;;;;4.13;2.23;;;24.30;49.00;;;;;;5014866;28;20225;-67
2023/07/07 08:29:51;;;;;;;4.85;2.25;;;24.40;49.50;;;;;;5017148;28;20046;-68
2023/07/07 08:32:22;;;;;;;5.38;2.40;;;24.60;48.70;;;;;;5015734;28;20042;-66
2023/07/07 08:34:52;;;;;;;3.42;2.25;;;24.70;48.00;;;;;;5020374;28;20076;-66
2023/07/07 08:37:20;;;;;;;5.00;2.17;;;24.80;48.40;;;;;;5015664;28;20046;-65
2023/07/07 08:39:48;;;;;;;4.63;2.05;;;24.90;48.00;;;;;;5016262;28;20100;-67
2023/07/07 08:42:22;;;;;;;3.67;2.42;;;24.90;47.50;;;;;;5017337;28;20060;-66
2023/07/07 08:44:49;;;;;;;3.47;2.08;;;25.10;46.90;;;;;;5012468;28;20655;-67
2023/07/07 08:47:31;;;;;;;4.07;2.53;;;25.20;46.10;;;;;;5016595;28;20057;-67
2023/07/07 08:50:05;;;;;;;5.95;2.00;;;25.40;45.80;;;;;;4993703;28;20121;-67
2023/07/07 08:52:43;;;;;;;4.57;2.25;;;25.50;45.30;;;;;;4984946;28;20065;-67
2023/07/07 08:55:25;;;;;;;5.72;2.55;;;25.60;44.50;;;;;;4993031;28;20046;-66
2023/07/07 08:57:59;;;;;;;4.57;2.50;;;25.80;44.00;;;;;;5015657;28;20527;-66
2023/07/07 09:00:49;;;;;;;4.57;2.45;;;26.00;43.90;;;;;;5013451;28;20481;-67
2023/07/07 09:03:34;;;;;;;5.18;2.58;;;26.10;43.60;;;;;;5006417;28;20037;-66
2023/07/07 09:06:11;;;;;;;4.13;2.25;;;26.10;43.10;;;;;;4990932;28;20057;-66
2023/07/07 09:08:48;;;;;;;4.85;2.70;;;26.30;41.60;;;;;;4985347;28;20050;-67
2023/07/07 09:11:25;;;;;;;4.80;2.40;;;26.40;42.00;;;;;;5004275;28;20060;-66
2023/07/07 09:13:57;;;;;;;5.63;2.22;;;26.40;42.20;;;;;;4993688;28;20144;-66
2023/07/07 09:16:28;;;;;;;5.55;2.30;;;26.60;41.80;;;;;;4982991;28;20043;-66
2023/07/07 09:19:09;;;;;;;4.63;2.42;;;26.60;41.50;;;;;;5015255;28;20086;-66
2023/07/07 09:21:51;;;;;;;4.00;2.38;;;26.80;41.30;;;;;;5011166;28;20124;-67
2023/07/07 09:24:23;;;;;;;4.68;2.20;;;27.00;40.80;;;;;;5018412;28;20393;-66
2023/07/07 09:26:56;;;;;;;5.22;2.50;;;27.10;39.60;;;;;;4995901;28;20058;-66
2023/07/07 09:29:27;;;;;;;3.72;2.50;;;27.20;39.40;;;;;;4991860;28;20050;-67
2023/07/07 09:31:55;;;;;;;4.38;2.08;;;27.30;39.10;;;;;;5016669;28;20053;-67
2023/07/07 09:34:24;;;;;;;3.53;2.25;;;27.40;39.60;;;;;;5001130;28;20045;-67
2023/07/07 09:37:08;;;;;;;5.68;2.60;;;27.40;39.20;;;;;;5013635;28;20053;-67
2023/07/07 09:39:56;;;;;;;4.00;2.20;;;27.50;39.40;;;;;;5012634;28;20464;-67
2023/07/07 09:42:41;;;;;;;5.93;2.40;;;27.60;39.30;;;;;;5011629;28;20061;-67
2023/07/07 09:45:24;;;;;;;5.82;2.58;;;27.70;38.70;;;;;;4993943;28;20056;-67
2023/07/07 09:47:57;;;;;;;5.43;2.65;;;27.70;38.60;;;;;;4991630;28;20121;-66
2023/07/07 09:50:29;;;;;;;5.22;2.67;;;27.80;39.00;;;;;;4992336;28;20428;-67
2023/07/07 09:53:03;;;;;;;5.63;2.50;;;28.00;37.70;;;;;;4994312;28;20069;-66
2023/07/07 09:55:33;;;;;;;4.82;2.40;;;28.10;37.70;;;;;;4992158;28;20045;-67
2023/07/07 09:58:05;;;;;;;4.85;2.63;;;28.20;38.00;;;;;;4994381;28;20729;-67
2023/07/07 10:00:35;;;;;;;4.93;2.25;;;28.30;37.40;;;;;;4989601;28;20058;-68
2023/07/07 10:03:05;;;;;;;4.28;2.47;;;28.30;37.80;;;;;;4991480;28;20109;-66
2023/07/07 10:05:36;;;;;;;7.15;4.60;;;28.40;38.00;;;;;;4994671;28;20140;-68
2023/07/07 10:08:10;;;;;;;7.60;5.63;;;28.40;38.10;;;;;;4998656;28;20050;-67
2023/07/07 10:10:37;;;;;;;7.50;5.07;;;28.50;37.90;;;;;;4989786;28;20482;-66
2023/07/07 10:13:04;;;;;;;8.82;5.43;;;28.50;37.60;;;;;;4993759;28;20119;-65
2023/07/07 10:15:48;;;;;;;10.25;7.43;;;28.60;38.10;;;;;;4995609;28;20607;-66
2023/07/07 10:18:20;;;;;;;12.80;10.07;;;28.80;38.20;;;;;;4992311;28;20062;-67
2023/07/07 10:20:47;;;;;;;11.38;7.95;;;28.80;38.20;;;;;;4995294;28;20117;-67
2023/07/07 10:23:16;;;;;;;10.88;6.28;;;28.90;36.40;;;;;;4988911;28;20057;-67
2023/07/07 10:25:43;;;;;;;;;;;29.10;36.10;;;;;;4994749;28;20050;-67
2023/07/07 10:28:13;;;;;;;11.00;8.63;;;29.10;36.60;;;;;;4997386;28;19925;-68
2023/07/07 10:30:42;;;;;;;7.78;5.70;;;29.20;37.00;;;;;;5005667;28;20052;-66
2023/07/07 10:33:11;;;;;;;7.90;4.78;;;29.30;35.50;;;;;;5015682;28;20045;-69
2023/07/07 10:35:40;;;;;;;7.90;6.03;;;29.30;35.30;;;;;;5013713;28;20476;-68
2023/07/07 10:38:11;;;;;;;7.78;5.78;;;29.30;36.80;;;;;;5006530;28;20069;-67
2023/07/07 10:40:42;;;;;;;8.93;6.45;;;29.30;36.50;;;;;;5009607;28;20455;-67
2023/07/07 10:43:12;;;;;;;8.57;6.18;;;29.40;36.50;;;;;;5017491;28;20558;-69
2023/07/07 10:45:39;;;;;;;7.20;4.95;;;29.50;35.40;;;;;;5005935;28;20042;-66
2023/07/07 10:48:12;;;;;;;7.95;5.03;;;29.60;34.60;;;;;;5010684;28;20053;-66
2023/07/07 10:50:49;;;;;;;7.78;5.45;;;29.60;35.10;;;;;;5011555;28;20053;-67
2023/07/07 10:53:29;;;;;;;8.05;6.35;;;29.70;35.40;;;;;;5016071;28;20050;-65
2023/07/07 10:56:13;;;;;;;7.15;5.00;;;29.60;36.00;;;;;;4995517;28;20513;-68
2023/07/07 10:59:06;;;;;;;7.60;4.80;;;29.70;34.30;;;;;;4993346;28;20135;-68
2023/07/07 11:01:50;;;;;;;6.25;4.38;;;29.80;33.40;;;;;;4966407;28;20046;-66
2023/07/07 11:04:50;;;;;;;6.30;5.07;;;29.90;32.50;;;;;;4967465;28;20525;-66
2023/07/07 11:07:30;;;;;;;5.85;3.88;;;30.00;33.30;;;;;;5005138;28;20100;-66
2023/07/07 11:10:15;;;;;;;5.80;4.32;;;29.80;32.80;;;;;;5016914;28;20042;-67
2023/07/07 11:12:53;;;;;;;11.05;6.00;;;29.70;32.60;;;;;;5013080;28;20447;-66
2023/07/07 11:15:27;;;;;;;7.28;5.32;;;29.60;34.30;;;;;;5018309;28;20071;-67
2023/07/07 11:18:06;;;;;;;8.07;5.05;;;29.60;33.80;;;;;;5012556;28;20108;-67
2023/07/07 11:20:46;;;;;;;6.18;5.18;;;29.80;33.60;;;;;;5006978;28;20052;-66
2023/07/07 11:23:29;;;;;;;6.60;5.22;;;29.90;32.90;;;;;;5017434;28;20042;-67
2023/07/07 11:26:06;;;;;;;8.70;7.20;;;30.00;32.80;;;;;;4994405;28;20056;-68
2023/07/07 11:28:42;;;;;;;7.53;6.55;;;30.00;34.40;;;;;;5010280;28;20092;-68
2023/07/07 11:31:36;;;;;;;7.47;6.35;;;30.10;34.20;;;;;;5020194;28;20549;-67
2023/07/07 11:34:16;;;;;;;8.20;5.90;;;30.10;33.80;;;;;;4999772;28;20409;-66
2023/07/07 11:37:14;;;;;;;7.80;5.72;;;30.10;34.60;;;;;;5017158;28;20104;-68
2023/07/07 11:40:04;;;;;;;9.13;6.35;;;30.20;32.40;;;;;;5016326;28;20569;-67
2023/07/07 11:42:46;;;;;;;9.38;6.00;;;30.20;33.60;;;;;;5015744;28;20104;-67
2023/07/07 11:45:23;;;;;;;7.68;6.00;;;30.30;31.70;;;;;;4996214;28;20058;-66
2023/07/07 11:48:17;;;;;;;7.50;5.72;;;30.30;31.20;;;;;;5014932;28;20051;-66
2023/07/07 11:51:02;;;;;;;9.07;6.70;;;30.40;31.10;;;;;;5016306;28;20081;-67
2023/07/07 11:53:47;;;;;;;8.23;7.00;;;30.30;33.10;;;;;;5019066;28;20378;-68
2023/07/07 11:56:26;;;;;;;11.07;9.38;;;30.30;33.00;;;;;;5019046;28;20049;-66
2023/07/07 11:59:00;;;;;;;10.27;8.55;;;30.40;33.80;;;;;;4992596;28;20049;-67
2023/07/07 12:01:35;;;;;;;13.48;12.05;;;30.30;33.50;;;;;;4997471;28;20050;-67
2023/07/07 12:04:10;;;;;;;15.10;13.52;;;30.30;33.20;;;;;;4998407;28;20553;-67
2023/07/07 12:06:45;;;;;;;16.10;14.45;;;30.40;33.80;;;;;;4999413;28;20486;-66
2023/07/07 12:09:19;;;;;;;19.17;17.17;;;30.40;33.30;;;;;;5007958;28;20063;-66
2023/07/07 12:11:58;;;;;;;24.52;21.52;;;30.50;32.10;;;;;;5013813;28;20056;-67
2023/07/07 12:14:35;;;;;;;22.65;20.25;;;30.50;33.70;;;;;;5017961;28;20218;-67
2023/07/07 12:17:06;;;;;;;25.40;22.17;;;30.50;33.10;;;;;;5014403;28;20046;-67
2023/07/07 12:19:37;;;;;;;21.25;19.15;;;30.60;33.80;;;;;;5014968;28;20045;-66
2023/07/07 12:22:12;;;;;;;21.27;18.95;;;30.50;33.70;;;;;;5016556;28;20515;-66
2023/07/07 12:24:45;;;;;;;14.52;13.02;;;30.40;34.00;;;;;;5008434;28;20045;-65
2023/07/07 12:27:17;;;;;;;17.35;15.60;;;30.40;32.60;;;;;;5017484;28;20060;-67
2023/07/07 12:29:46;;;;;;;20.38;18.17;;;30.30;32.30;;;;;;5015491;28;20054;-68
2023/07/07 12:32:14;;;;;;;;;;;30.40;31.40;;;;;;5014493;28;20049;-67
2023/07/07 12:34:44;;;;;;;16.88;14.90;;;30.50;32.80;;;;;;5015958;28;20251;-68
2023/07/07 12:37:18;;;;;;;16.23;14.52;;;30.50;33.40;;;;;;5017580;28;20048;-68
2023/07/07 12:39:52;;;;;;;14.25;10.93;;;30.40;33.90;;;;;;5017408;28;20113;-67
2023/07/07 12:42:19;;;;;;;12.55;10.45;;;30.30;32.50;;;;;;5017845;28;20072;-68
2023/07/07 12:44:46;;;;;;;14.82;12.15;;;30.30;33.30;;;;;;5016338;28;20056;-67
2023/07/07 12:47:29;;;;;;;16.92;13.18;;;30.30;31.10;;;;;;5017264;28;20045;-69
2023/07/07 12:49:58;;;;;;;12.63;9.68;;;30.30;33.00;;;;;;5014068;28;20050;-65
2023/07/07 12:52:29;;;;;;;9.30;7.25;;;30.30;31.20;;;;;;4997834;28;20061;-65
2023/07/07 12:55:06;;;;;;;9.23;7.57;;;30.40;31.60;;;;;;5010780;28;20049;-68
2023/07/07 12:57:35;;;;;;;11.13;8.60;;;30.30;33.70;;;;;;5009926;28;20034;-66
2023/07/07 13:00:28;;;;;;;11.80;8.02;;;30.10;34.10;;;;;;5004241;28;20048;-67
2023/07/07 13:03:20;;;;;;;10.35;8.73;;;29.90;33.50;;;;;;4984371;28;20497;-67
2023/07/07 13:06:15;;;;;;;9.85;8.20;;;30.00;33.10;;;;;;4979907;28;20050;-66
2023/07/07 13:08:48;;;;;;;9.77;8.30;;;29.90;34.90;;;;;;5006354;28;20112;-66
2023/07/07 13:11:32;;;;;;;9.60;7.68;;;29.90;34.10;;;;;;5007662;28;20111;-66
2023/07/07 13:13:59;;;;;;;12.65;10.05;;;30.00;31.70;;;;;;5013103;28;20229;-67